Armstrong, Illinois
Current Conditions -  °F | °C
As of 9:50 PM on Thursday 27 Nov 2014 (Local Time) from KTIP Reporting Station
Broken Clouds Broken Clouds  
Wind Chill: 10°   Ceiling: 2400
Heat Index: 19°   Visibility: 10mi
Dew Point: 12°   Wind: 7mph
Humidity: 75%   Direction: 310°NW
Pressure: 30.43"   Gusts: NA
Location:  40.31°N, 87.88°W
Report Text: KTIP 280350Z AUTO 31006KT 10SM BKN024 M07/M11 A3043 RMK AO2 T10731110
Loading
Personal Weather Stations






























Interactive Weather Map New forecast layout! Learn more

10-Day Weather Forecast

Advertisements
Track Severe Weather on mobile